sensor_id;sensor_type;location;lat;lon;timestamp;P1;durP1;ratioP1;P2;durP2;ratioP2
61840;SDS011;47773;53.174;6.614;2023-02-15T00:01:34;100.05;;;41.40;;
61840;SDS011;47773;53.174;6.614;2023-02-15T00:04:00;93.68;;;41.25;;
61840;SDS011;47773;53.174;6.614;2023-02-15T00:06:26;95.70;;;40.50;;
61840;SDS011;47773;53.174;6.614;2023-02-15T00:08:53;100.22;;;39.72;;
61840;SDS011;47773;53.174;6.614;2023-02-15T00:11:19;88.90;;;37.28;;
61840;SDS011;47773;53.174;6.614;2023-02-15T00:14:05;92.43;;;39.55;;
61840;SDS011;47773;53.174;6.614;2023-02-15T00:16:32;97.20;;;37.30;;
61840;SDS011;47773;53.174;6.614;2023-02-15T00:18:57;88.18;;;38.33;;
61840;SDS011;47773;53.174;6.614;2023-02-15T00:21:26;86.30;;;39.05;;
61840;SDS011;47773;53.174;6.614;2023-02-15T00:23:53;90.80;;;36.03;;
61840;SDS011;47773;53.174;6.614;2023-02-15T00:26:19;79.93;;;35.15;;
61840;SDS011;47773;53.174;6.614;2023-02-15T00:28:45;76.60;;;35.38;;
61840;SDS011;47773;53.174;6.614;2023-02-15T00:31:11;77.85;;;32.95;;
61840;SDS011;47773;53.174;6.614;2023-02-15T00:33:37;78.82;;;34.10;;
61840;SDS011;47773;53.174;6.614;2023-02-15T00:36:04;72.80;;;33.53;;
61840;SDS011;47773;53.174;6.614;2023-02-15T00:38:31;74.95;;;33.30;;
61840;SDS011;47773;53.174;6.614;2023-02-15T00:40:57;72.47;;;32.33;;
61840;SDS011;47773;53.174;6.614;2023-02-15T00:43:25;77.45;;;33.60;;
61840;SDS011;47773;53.174;6.614;2023-02-15T00:45:51;77.38;;;32.90;;
61840;SDS011;47773;53.174;6.614;2023-02-15T00:48:17;72.00;;;32.30;;
61840;SDS011;47773;53.174;6.614;2023-02-15T00:50:47;74.88;;;32.00;;
61840;SDS011;47773;53.174;6.614;2023-02-15T00:53:14;73.65;;;31.75;;
61840;SDS011;47773;53.174;6.614;2023-02-15T00:55:40;68.85;;;30.95;;
61840;SDS011;47773;53.174;6.614;2023-02-15T00:58:07;63.90;;;30.52;;
61840;SDS011;47773;53.174;6.614;2023-02-15T01:00:34;66.22;;;29.90;;
61840;SDS011;47773;53.174;6.614;2023-02-15T01:03:00;67.60;;;30.13;;
61840;SDS011;47773;53.174;6.614;2023-02-15T01:05:26;70.57;;;30.65;;
61840;SDS011;47773;53.174;6.614;2023-02-15T01:07:52;66.80;;;29.58;;
61840;SDS011;47773;53.174;6.614;2023-02-15T01:10:18;65.75;;;30.70;;
61840;SDS011;47773;53.174;6.614;2023-02-15T01:12:43;71.28;;;31.77;;
61840;SDS011;47773;53.174;6.614;2023-02-15T01:15:09;79.25;;;30.95;;
61840;SDS011;47773;53.174;6.614;2023-02-15T01:17:35;67.70;;;31.20;;
61840;SDS011;47773;53.174;6.614;2023-02-15T01:20:00;69.53;;;29.92;;
61840;SDS011;47773;53.174;6.614;2023-02-15T01:22:26;68.15;;;32.20;;
61840;SDS011;47773;53.174;6.614;2023-02-15T01:24:52;59.35;;;28.95;;
61840;SDS011;47773;53.174;6.614;2023-02-15T01:27:17;61.67;;;29.45;;
61840;SDS011;47773;53.174;6.614;2023-02-15T01:29:46;61.38;;;28.17;;
61840;SDS011;47773;53.174;6.614;2023-02-15T01:32:12;62.25;;;28.63;;
61840;SDS011;47773;53.174;6.614;2023-02-15T01:34:38;67.85;;;29.30;;
61840;SDS011;47773;53.174;6.614;2023-02-15T01:37:04;65.40;;;29.02;;
61840;SDS011;47773;53.174;6.614;2023-02-15T01:39:29;56.85;;;27.50;;
61840;SDS011;47773;53.174;6.614;2023-02-15T01:41:55;54.63;;;27.40;;
61840;SDS011;47773;53.174;6.614;2023-02-15T01:47:23;53.70;;;27.10;;
61840;SDS011;47773;53.174;6.614;2023-02-15T01:50:06;57.05;;;26.75;;
61840;SDS011;47773;53.174;6.614;2023-02-15T01:52:34;59.85;;;27.75;;
61840;SDS011;47773;53.174;6.614;2023-02-15T01:55:02;53.53;;;25.77;;
61840;SDS011;47773;53.174;6.614;2023-02-15T01:57:29;59.17;;;27.27;;
61840;SDS011;47773;53.174;6.614;2023-02-15T01:59:56;57.88;;;25.85;;
61840;SDS011;47773;53.174;6.614;2023-02-15T02:02:26;51.58;;;24.95;;
61840;SDS011;47773;53.174;6.614;2023-02-15T02:04:54;54.72;;;25.52;;
61840;SDS011;47773;53.174;6.614;2023-02-15T02:07:26;57.70;;;26.85;;
61840;SDS011;47773;53.174;6.614;2023-02-15T02:09:53;53.33;;;24.70;;
61840;SDS011;47773;53.174;6.614;2023-02-15T02:12:19;53.50;;;25.67;;
61840;SDS011;47773;53.174;6.614;2023-02-15T02:14:47;46.92;;;24.20;;
61840;SDS011;47773;53.174;6.614;2023-02-15T02:25:36;48.80;;;23.05;;
61840;SDS011;47773;53.174;6.614;2023-02-15T02:41:32;47.15;;;23.25;;
61840;SDS011;47773;53.174;6.614;2023-02-15T02:44:17;46.85;;;22.85;;
61840;SDS011;47773;53.174;6.614;2023-02-15T02:49:13;45.97;;;21.67;;
61840;SDS011;47773;53.174;6.614;2023-02-15T02:51:39;41.70;;;21.88;;
61840;SDS011;47773;53.174;6.614;2023-02-15T02:54:05;41.40;;;21.98;;
61840;SDS011;47773;53.174;6.614;2023-02-15T02:56:46;42.90;;;22.13;;
61840;SDS011;47773;53.174;6.614;2023-02-15T02:59:35;37.72;;;19.95;;
61840;SDS011;47773;53.174;6.614;2023-02-15T03:02:24;43.05;;;20.77;;
61840;SDS011;47773;53.174;6.614;2023-02-15T03:04:56;38.05;;;21.10;;
61840;SDS011;47773;53.174;6.614;2023-02-15T03:07:28;41.33;;;21.30;;
61840;SDS011;47773;53.174;6.614;2023-02-15T03:09:57;42.95;;;21.58;;
61840;SDS011;47773;53.174;6.614;2023-02-15T03:12:29;41.28;;;21.40;;
61840;SDS011;47773;53.174;6.614;2023-02-15T03:15:03;42.58;;;21.17;;
61840;SDS011;47773;53.174;6.614;2023-02-15T03:17:30;46.30;;;21.70;;
61840;SDS011;47773;53.174;6.614;2023-02-15T03:19:59;42.33;;;21.65;;
61840;SDS011;47773;53.174;6.614;2023-02-15T03:22:28;47.40;;;21.52;;
61840;SDS011;47773;53.174;6.614;2023-02-15T03:27:45;43.75;;;22.20;;
61840;SDS011;47773;53.174;6.614;2023-02-15T03:30:15;37.17;;;20.85;;
61840;SDS011;47773;53.174;6.614;2023-02-15T03:32:45;40.85;;;21.33;;
61840;SDS011;47773;53.174;6.614;2023-02-15T03:35:12;38.72;;;20.95;;
61840;SDS011;47773;53.174;6.614;2023-02-15T03:37:40;37.67;;;20.50;;
61840;SDS011;47773;53.174;6.614;2023-02-15T03:43:03;41.90;;;21.38;;
61840;SDS011;47773;53.174;6.614;2023-02-15T03:45:37;35.83;;;20.27;;
61840;SDS011;47773;53.174;6.614;2023-02-15T03:48:20;37.72;;;20.48;;
61840;SDS011;47773;53.174;6.614;2023-02-15T03:50:48;38.35;;;21.17;;
61840;SDS011;47773;53.174;6.614;2023-02-15T03:53:33;37.15;;;19.77;;
61840;SDS011;47773;53.174;6.614;2023-02-15T03:55:59;34.47;;;19.20;;
61840;SDS011;47773;53.174;6.614;2023-02-15T03:58:25;35.95;;;19.95;;
61840;SDS011;47773;53.174;6.614;2023-02-15T04:01:13;37.13;;;20.23;;
61840;SDS011;47773;53.174;6.614;2023-02-15T04:04:16;40.80;;;19.60;;
61840;SDS011;47773;53.174;6.614;2023-02-15T04:06:46;38.22;;;20.15;;
61840;SDS011;47773;53.174;6.614;2023-02-15T04:09:13;37.85;;;20.42;;
61840;SDS011;47773;53.174;6.614;2023-02-15T04:11:57;33.55;;;19.65;;
61840;SDS011;47773;53.174;6.614;2023-02-15T04:14:23;37.35;;;20.23;;
61840;SDS011;47773;53.174;6.614;2023-02-15T04:17:07;34.70;;;19.75;;
61840;SDS011;47773;53.174;6.614;2023-02-15T04:19:34;37.53;;;19.75;;
61840;SDS011;47773;53.174;6.614;2023-02-15T04:22:18;41.25;;;21.63;;
61840;SDS011;47773;53.174;6.614;2023-02-15T04:25:02;37.92;;;20.55;;
61840;SDS011;47773;53.174;6.614;2023-02-15T04:27:34;37.08;;;19.98;;
61840;SDS011;47773;53.174;6.614;2023-02-15T04:30:00;38.78;;;21.05;;
61840;SDS011;47773;53.174;6.614;2023-02-15T04:32:26;37.72;;;20.65;;
61840;SDS011;47773;53.174;6.614;2023-02-15T04:34:52;35.92;;;21.33;;
61840;SDS011;47773;53.174;6.614;2023-02-15T04:37:18;35.17;;;20.63;;
61840;SDS011;47773;53.174;6.614;2023-02-15T04:39:44;40.60;;;21.08;;
61840;SDS011;47773;53.174;6.614;2023-02-15T04:42:09;36.58;;;20.73;;
61840;SDS011;47773;53.174;6.614;2023-02-15T04:44:35;38.95;;;21.50;;
61840;SDS011;47773;53.174;6.614;2023-02-15T04:47:00;39.83;;;21.38;;
61840;SDS011;47773;53.174;6.614;2023-02-15T04:49:26;37.60;;;21.50;;
61840;SDS011;47773;53.174;6.614;2023-02-15T04:51:52;41.85;;;22.20;;
61840;SDS011;47773;53.174;6.614;2023-02-15T04:54:17;40.58;;;21.83;;
61840;SDS011;47773;53.174;6.614;2023-02-15T04:56:43;39.05;;;22.60;;
61840;SDS011;47773;53.174;6.614;2023-02-15T04:59:12;38.00;;;21.90;;
61840;SDS011;47773;53.174;6.614;2023-02-15T05:01:37;40.30;;;22.75;;
61840;SDS011;47773;53.174;6.614;2023-02-15T05:04:03;38.30;;;22.65;;
61840;SDS011;47773;53.174;6.614;2023-02-15T05:06:29;41.67;;;22.42;;
61840;SDS011;47773;53.174;6.614;2023-02-15T05:08:55;44.08;;;22.67;;
61840;SDS011;47773;53.174;6.614;2023-02-15T05:11:20;41.85;;;22.17;;
61840;SDS011;47773;53.174;6.614;2023-02-15T05:13:46;38.80;;;22.23;;
61840;SDS011;47773;53.174;6.614;2023-02-15T05:16:12;39.42;;;21.75;;
61840;SDS011;47773;53.174;6.614;2023-02-15T05:18:38;40.28;;;22.70;;
61840;SDS011;47773;53.174;6.614;2023-02-15T05:21:03;39.45;;;21.40;;
61840;SDS011;47773;53.174;6.614;2023-02-15T05:23:29;38.17;;;22.42;;
61840;SDS011;47773;53.174;6.614;2023-02-15T05:25:54;41.55;;;24.23;;
61840;SDS011;47773;53.174;6.614;2023-02-15T05:28:39;43.97;;;24.48;;
61840;SDS011;47773;53.174;6.614;2023-02-15T05:31:09;40.40;;;22.92;;
61840;SDS011;47773;53.174;6.614;2023-02-15T05:33:37;37.88;;;21.67;;
61840;SDS011;47773;53.174;6.614;2023-02-15T05:36:03;41.20;;;23.02;;
61840;SDS011;47773;53.174;6.614;2023-02-15T05:38:30;42.10;;;23.15;;
61840;SDS011;47773;53.174;6.614;2023-02-15T05:40:56;43.20;;;23.27;;
61840;SDS011;47773;53.174;6.614;2023-02-15T05:43:22;43.20;;;23.70;;
61840;SDS011;47773;53.174;6.614;2023-02-15T05:45:52;40.40;;;24.48;;
61840;SDS011;47773;53.174;6.614;2023-02-15T05:48:19;39.35;;;23.13;;
61840;SDS011;47773;53.174;6.614;2023-02-15T05:50:46;43.55;;;23.63;;
61840;SDS011;47773;53.174;6.614;2023-02-15T05:53:12;44.53;;;24.00;;
61840;SDS011;47773;53.174;6.614;2023-02-15T05:55:38;42.35;;;23.40;;
61840;SDS011;47773;53.174;6.614;2023-02-15T05:58:05;41.10;;;23.60;;
61840;SDS011;47773;53.174;6.614;2023-02-15T06:00:31;39.55;;;23.23;;
61840;SDS011;47773;53.174;6.614;2023-02-15T06:02:57;45.88;;;25.67;;
61840;SDS011;47773;53.174;6.614;2023-02-15T06:05:22;46.35;;;25.65;;
61840;SDS011;47773;53.174;6.614;2023-02-15T06:07:48;41.65;;;23.92;;
61840;SDS011;47773;53.174;6.614;2023-02-15T06:10:13;39.85;;;22.80;;
61840;SDS011;47773;53.174;6.614;2023-02-15T06:12:39;46.15;;;25.60;;
61840;SDS011;47773;53.174;6.614;2023-02-15T06:15:05;45.88;;;24.63;;
61840;SDS011;47773;53.174;6.614;2023-02-15T06:17:31;49.50;;;25.52;;
61840;SDS011;47773;53.174;6.614;2023-02-15T06:19:56;51.50;;;26.67;;
61840;SDS011;47773;53.174;6.614;2023-02-15T06:22:22;46.50;;;25.80;;
61840;SDS011;47773;53.174;6.614;2023-02-15T06:24:47;51.55;;;26.70;;
61840;SDS011;47773;53.174;6.614;2023-02-15T06:27:13;47.15;;;25.98;;
61840;SDS011;47773;53.174;6.614;2023-02-15T06:29:39;57.47;;;28.05;;
61840;SDS011;47773;53.174;6.614;2023-02-15T06:32:05;51.80;;;26.05;;
61840;SDS011;47773;53.174;6.614;2023-02-15T06:34:31;54.10;;;27.48;;
61840;SDS011;47773;53.174;6.614;2023-02-15T06:36:57;54.55;;;28.90;;
61840;SDS011;47773;53.174;6.614;2023-02-15T06:39:22;65.88;;;28.50;;
61840;SDS011;47773;53.174;6.614;2023-02-15T06:41:48;56.63;;;29.10;;
61840;SDS011;47773;53.174;6.614;2023-02-15T06:44:14;48.20;;;27.50;;
61840;SDS011;47773;53.174;6.614;2023-02-15T06:46:39;63.90;;;31.85;;
61840;SDS011;47773;53.174;6.614;2023-02-15T06:49:05;62.33;;;30.33;;
61840;SDS011;47773;53.174;6.614;2023-02-15T06:51:31;68.60;;;31.98;;
61840;SDS011;47773;53.174;6.614;2023-02-15T06:53:56;56.65;;;31.17;;
61840;SDS011;47773;53.174;6.614;2023-02-15T06:56:22;61.22;;;32.80;;
61840;SDS011;47773;53.174;6.614;2023-02-15T06:58:48;65.85;;;32.28;;
61840;SDS011;47773;53.174;6.614;2023-02-15T07:01:17;69.70;;;34.08;;
61840;SDS011;47773;53.174;6.614;2023-02-15T07:03:43;67.32;;;33.88;;
61840;SDS011;47773;53.174;6.614;2023-02-15T07:06:09;71.30;;;33.78;;
61840;SDS011;47773;53.174;6.614;2023-02-15T07:08:35;63.00;;;31.70;;
61840;SDS011;47773;53.174;6.614;2023-02-15T07:11:03;71.57;;;32.65;;
61840;SDS011;47773;53.174;6.614;2023-02-15T07:13:48;71.22;;;33.78;;
61840;SDS011;47773;53.174;6.614;2023-02-15T07:16:13;74.82;;;35.42;;
61840;SDS011;47773;53.174;6.614;2023-02-15T07:18:39;74.38;;;36.85;;
61840;SDS011;47773;53.174;6.614;2023-02-15T07:21:05;68.47;;;35.53;;
61840;SDS011;47773;53.174;6.614;2023-02-15T07:23:37;70.28;;;36.90;;
61840;SDS011;47773;53.174;6.614;2023-02-15T07:26:04;72.55;;;34.83;;
61840;SDS011;47773;53.174;6.614;2023-02-15T07:28:32;69.93;;;34.40;;
61840;SDS011;47773;53.174;6.614;2023-02-15T07:31:00;72.38;;;35.05;;
61840;SDS011;47773;53.174;6.614;2023-02-15T07:33:27;70.28;;;34.28;;
61840;SDS011;47773;53.174;6.614;2023-02-15T07:35:54;73.35;;;35.60;;
61840;SDS011;47773;53.174;6.614;2023-02-15T07:38:25;74.20;;;34.22;;
61840;SDS011;47773;53.174;6.614;2023-02-15T07:40:57;63.42;;;32.97;;
61840;SDS011;47773;53.174;6.614;2023-02-15T07:43:34;68.32;;;33.95;;
61840;SDS011;47773;53.174;6.614;2023-02-15T07:46:02;67.35;;;32.67;;
61840;SDS011;47773;53.174;6.614;2023-02-15T07:48:29;72.05;;;34.65;;
61840;SDS011;47773;53.174;6.614;2023-02-15T07:51:02;74.03;;;34.97;;
61840;SDS011;47773;53.174;6.614;2023-02-15T07:53:29;72.43;;;34.65;;
61840;SDS011;47773;53.174;6.614;2023-02-15T07:55:59;74.80;;;34.60;;
61840;SDS011;47773;53.174;6.614;2023-02-15T07:58:25;76.93;;;36.13;;
61840;SDS011;47773;53.174;6.614;2023-02-15T08:01:11;85.38;;;37.78;;
61840;SDS011;47773;53.174;6.614;2023-02-15T08:03:37;76.45;;;36.15;;
61840;SDS011;47773;53.174;6.614;2023-02-15T08:06:03;72.13;;;35.28;;
61840;SDS011;47773;53.174;6.614;2023-02-15T08:08:29;71.03;;;34.65;;
61840;SDS011;47773;53.174;6.614;2023-02-15T08:11:14;70.90;;;34.50;;
61840;SDS011;47773;53.174;6.614;2023-02-15T08:13:58;79.78;;;35.78;;
61840;SDS011;47773;53.174;6.614;2023-02-15T08:21:57;82.22;;;38.78;;
61840;SDS011;47773;53.174;6.614;2023-02-15T08:24:28;80.82;;;36.15;;
61840;SDS011;47773;53.174;6.614;2023-02-15T08:26:55;90.55;;;37.25;;
61840;SDS011;47773;53.174;6.614;2023-02-15T08:29:22;80.55;;;36.83;;
61840;SDS011;47773;53.174;6.614;2023-02-15T08:31:50;89.75;;;38.88;;
61840;SDS011;47773;53.174;6.614;2023-02-15T08:34:19;88.70;;;38.22;;
61840;SDS011;47773;53.174;6.614;2023-02-15T08:36:46;80.65;;;37.63;;
61840;SDS011;47773;53.174;6.614;2023-02-15T08:39:12;96.95;;;39.67;;
61840;SDS011;47773;53.174;6.614;2023-02-15T08:41:41;92.72;;;40.72;;
61840;SDS011;47773;53.174;6.614;2023-02-15T08:44:08;82.75;;;35.60;;
61840;SDS011;47773;53.174;6.614;2023-02-15T08:46:35;73.65;;;36.72;;
61840;SDS011;47773;53.174;6.614;2023-02-15T08:49:02;84.22;;;39.70;;
61840;SDS011;47773;53.174;6.614;2023-02-15T08:51:29;78.63;;;34.63;;
61840;SDS011;47773;53.174;6.614;2023-02-15T08:53:57;85.78;;;36.30;;
61840;SDS011;47773;53.174;6.614;2023-02-15T08:56:28;81.30;;;37.03;;
61840;SDS011;47773;53.174;6.614;2023-02-15T08:58:56;80.07;;;37.13;;
61840;SDS011;47773;53.174;6.614;2023-02-15T09:01:23;79.15;;;36.65;;
61840;SDS011;47773;53.174;6.614;2023-02-15T09:03:51;80.20;;;37.22;;
61840;SDS011;47773;53.174;6.614;2023-02-15T09:06:20;80.43;;;38.10;;
61840;SDS011;47773;53.174;6.614;2023-02-15T09:08:47;83.72;;;37.92;;
61840;SDS011;47773;53.174;6.614;2023-02-15T09:11:17;82.93;;;37.65;;
61840;SDS011;47773;53.174;6.614;2023-02-15T09:13:48;85.10;;;37.35;;
61840;SDS011;47773;53.174;6.614;2023-02-15T09:16:18;82.10;;;37.22;;
61840;SDS011;47773;53.174;6.614;2023-02-15T09:18:45;92.85;;;38.25;;
61840;SDS011;47773;53.174;6.614;2023-02-15T09:21:15;87.20;;;38.03;;
61840;SDS011;47773;53.174;6.614;2023-02-15T09:23:43;85.90;;;38.30;;
61840;SDS011;47773;53.174;6.614;2023-02-15T09:26:15;89.00;;;37.03;;
61840;SDS011;47773;53.174;6.614;2023-02-15T09:28:42;98.50;;;39.72;;
61840;SDS011;47773;53.174;6.614;2023-02-15T09:33:37;94.32;;;39.33;;
61840;SDS011;47773;53.174;6.614;2023-02-15T09:36:04;93.40;;;40.15;;
61840;SDS011;47773;53.174;6.614;2023-02-15T09:38:38;99.47;;;39.20;;
61840;SDS011;47773;53.174;6.614;2023-02-15T09:49:48;100.55;;;40.30;;
61840;SDS011;47773;53.174;6.614;2023-02-15T09:52:33;107.68;;;40.78;;
61840;SDS011;47773;53.174;6.614;2023-02-15T09:58:31;109.35;;;41.40;;
61840;SDS011;47773;53.174;6.614;2023-02-15T10:03:25;109.25;;;42.85;;
61840;SDS011;47773;53.174;6.614;2023-02-15T10:06:14;113.10;;;42.92;;
61840;SDS011;47773;53.174;6.614;2023-02-15T10:14:32;123.60;;;44.08;;
61840;SDS011;47773;53.174;6.614;2023-02-15T10:17:35;121.63;;;46.45;;
61840;SDS011;47773;53.174;6.614;2023-02-15T10:23:46;134.57;;;47.75;;
61840;SDS011;47773;53.174;6.614;2023-02-15T10:31:27;137.73;;;48.38;;
61840;SDS011;47773;53.174;6.614;2023-02-15T10:39:21;139.55;;;49.35;;
61840;SDS011;47773;53.174;6.614;2023-02-15T10:47:50;138.60;;;47.30;;
61840;SDS011;47773;53.174;6.614;2023-02-15T10:50:57;142.05;;;48.58;;
61840;SDS011;47773;53.174;6.614;2023-02-15T10:56:35;159.70;;;51.85;;
61840;SDS011;47773;53.174;6.614;2023-02-15T11:00:05;143.10;;;50.65;;
61840;SDS011;47773;53.174;6.614;2023-02-15T11:05:35;144.95;;;49.28;;
61840;SDS011;47773;53.174;6.614;2023-02-15T11:08:21;156.30;;;51.17;;
61840;SDS011;47773;53.174;6.614;2023-02-15T11:10:59;168.88;;;52.72;;
61840;SDS011;47773;53.174;6.614;2023-02-15T11:13:32;161.68;;;51.60;;
61840;SDS011;47773;53.174;6.614;2023-02-15T11:18:36;151.00;;;50.10;;
61840;SDS011;47773;53.174;6.614;2023-02-15T11:21:31;153.45;;;52.10;;
61840;SDS011;47773;53.174;6.614;2023-02-15T11:24:13;164.38;;;54.10;;
61840;SDS011;47773;53.174;6.614;2023-02-15T11:26:48;162.88;;;51.42;;
61840;SDS011;47773;53.174;6.614;2023-02-15T11:31:53;158.55;;;51.03;;
61840;SDS011;47773;53.174;6.614;2023-02-15T11:36:50;171.32;;;55.05;;
61840;SDS011;47773;53.174;6.614;2023-02-15T11:39:19;163.00;;;52.08;;
61840;SDS011;47773;53.174;6.614;2023-02-15T11:41:53;165.35;;;53.53;;
61840;SDS011;47773;53.174;6.614;2023-02-15T11:44:23;158.75;;;52.45;;
61840;SDS011;47773;53.174;6.614;2023-02-15T11:46:52;154.60;;;51.35;;
61840;SDS011;47773;53.174;6.614;2023-02-15T11:51:57;165.48;;;53.05;;
61840;SDS011;47773;53.174;6.614;2023-02-15T11:54:26;150.32;;;53.88;;
61840;SDS011;47773;53.174;6.614;2023-02-15T11:56:58;169.82;;;53.63;;
61840;SDS011;47773;53.174;6.614;2023-02-15T11:59:33;145.70;;;49.83;;
61840;SDS011;47773;53.174;6.614;2023-02-15T12:02:01;164.95;;;51.83;;
61840;SDS011;47773;53.174;6.614;2023-02-15T12:15:36;160.30;;;49.58;;
61840;SDS011;47773;53.174;6.614;2023-02-15T12:18:02;141.18;;;47.65;;
61840;SDS011;47773;53.174;6.614;2023-02-15T12:20:32;154.10;;;48.88;;
61840;SDS011;47773;53.174;6.614;2023-02-15T12:23:03;155.52;;;48.10;;
61840;SDS011;47773;53.174;6.614;2023-02-15T12:25:50;154.85;;;48.40;;
61840;SDS011;47773;53.174;6.614;2023-02-15T12:30:51;162.98;;;50.13;;
61840;SDS011;47773;53.174;6.614;2023-02-15T12:36:09;162.90;;;50.80;;
61840;SDS011;47773;53.174;6.614;2023-02-15T12:38:39;164.35;;;51.47;;
61840;SDS011;47773;53.174;6.614;2023-02-15T12:41:22;163.05;;;50.97;;
61840;SDS011;47773;53.174;6.614;2023-02-15T12:44:03;176.57;;;52.40;;
61840;SDS011;47773;53.174;6.614;2023-02-15T12:46:30;172.38;;;53.25;;
61840;SDS011;47773;53.174;6.614;2023-02-15T12:51:44;173.25;;;56.38;;
61840;SDS011;47773;53.174;6.614;2023-02-15T12:54:20;172.48;;;55.15;;
61840;SDS011;47773;53.174;6.614;2023-02-15T12:56:54;156.30;;;52.55;;
61840;SDS011;47773;53.174;6.614;2023-02-15T12:59:19;173.80;;;53.67;;
61840;SDS011;47773;53.174;6.614;2023-02-15T13:01:46;165.55;;;53.42;;
61840;SDS011;47773;53.174;6.614;2023-02-15T13:06:50;167.70;;;55.00;;
61840;SDS011;47773;53.174;6.614;2023-02-15T13:09:26;193.30;;;56.42;;
61840;SDS011;47773;53.174;6.614;2023-02-15T13:14:49;167.93;;;55.40;;
61840;SDS011;47773;53.174;6.614;2023-02-15T13:17:16;170.55;;;56.85;;
61840;SDS011;47773;53.174;6.614;2023-02-15T13:19:46;183.07;;;55.78;;
61840;SDS011;47773;53.174;6.614;2023-02-15T13:22:25;162.68;;;52.25;;
61840;SDS011;47773;53.174;6.614;2023-02-15T13:24:59;156.07;;;52.08;;
61840;SDS011;47773;53.174;6.614;2023-02-15T13:27:33;156.18;;;54.35;;
61840;SDS011;47773;53.174;6.614;2023-02-15T13:30:10;169.55;;;56.33;;
61840;SDS011;47773;53.174;6.614;2023-02-15T13:32:44;156.05;;;53.58;;
61840;SDS011;47773;53.174;6.614;2023-02-15T13:35:15;153.63;;;51.97;;
61840;SDS011;47773;53.174;6.614;2023-02-15T13:49:25;165.27;;;55.30;;
61840;SDS011;47773;53.174;6.614;2023-02-15T13:54:36;161.63;;;55.45;;
61840;SDS011;47773;53.174;6.614;2023-02-15T13:59:58;153.00;;;54.30;;
61840;SDS011;47773;53.174;6.614;2023-02-15T14:05:32;153.38;;;50.92;;
61840;SDS011;47773;53.174;6.614;2023-02-15T14:10:40;147.55;;;51.95;;
61840;SDS011;47773;53.174;6.614;2023-02-15T14:15:52;153.73;;;51.60;;
61840;SDS011;47773;53.174;6.614;2023-02-15T14:18:54;143.68;;;51.20;;
61840;SDS011;47773;53.174;6.614;2023-02-15T14:29:46;136.98;;;45.92;;
61840;SDS011;47773;53.174;6.614;2023-02-15T14:35:05;139.00;;;46.53;;
61840;SDS011;47773;53.174;6.614;2023-02-15T14:48:30;135.02;;;45.28;;
61840;SDS011;47773;53.174;6.614;2023-02-15T14:50:58;136.80;;;45.67;;
61840;SDS011;47773;53.174;6.614;2023-02-15T14:58:38;134.80;;;46.22;;
61840;SDS011;47773;53.174;6.614;2023-02-15T15:01:29;115.63;;;43.47;;
61840;SDS011;47773;53.174;6.614;2023-02-15T15:03:58;123.60;;;43.38;;
61840;SDS011;47773;53.174;6.614;2023-02-15T15:06:31;120.55;;;46.55;;
61840;SDS011;47773;53.174;6.614;2023-02-15T15:09:10;115.35;;;41.38;;
61840;SDS011;47773;53.174;6.614;2023-02-15T15:11:46;131.40;;;45.88;;
61840;SDS011;47773;53.174;6.614;2023-02-15T15:14:51;122.65;;;46.25;;
61840;SDS011;47773;53.174;6.614;2023-02-15T15:19:56;111.95;;;40.63;;
61840;SDS011;47773;53.174;6.614;2023-02-15T15:22:24;124.85;;;44.50;;
61840;SDS011;47773;53.174;6.614;2023-02-15T15:24:52;135.32;;;45.55;;
61840;SDS011;47773;53.174;6.614;2023-02-15T15:35:37;128.68;;;46.53;;
61840;SDS011;47773;53.174;6.614;2023-02-15T15:41:12;122.78;;;45.88;;
61840;SDS011;47773;53.174;6.614;2023-02-15T15:49:39;119.18;;;45.45;;
61840;SDS011;47773;53.174;6.614;2023-02-15T15:52:16;120.05;;;45.05;;
61840;SDS011;47773;53.174;6.614;2023-02-15T15:54:44;126.22;;;45.78;;
61840;SDS011;47773;53.174;6.614;2023-02-15T15:57:21;123.28;;;46.30;;
61840;SDS011;47773;53.174;6.614;2023-02-15T15:59:48;117.88;;;46.00;;
61840;SDS011;47773;53.174;6.614;2023-02-15T16:02:15;124.93;;;45.78;;
61840;SDS011;47773;53.174;6.614;2023-02-15T16:04:42;119.95;;;45.33;;
61840;SDS011;47773;53.174;6.614;2023-02-15T16:12:45;118.97;;;45.17;;
61840;SDS011;47773;53.174;6.614;2023-02-15T16:15:14;122.32;;;44.00;;
61840;SDS011;47773;53.174;6.614;2023-02-15T16:17:41;119.85;;;45.90;;
61840;SDS011;47773;53.174;6.614;2023-02-15T16:23:17;135.52;;;44.97;;
61840;SDS011;47773;53.174;6.614;2023-02-15T16:31:42;123.28;;;43.88;;
61840;SDS011;47773;53.174;6.614;2023-02-15T16:34:17;118.43;;;43.97;;
61840;SDS011;47773;53.174;6.614;2023-02-15T16:36:43;114.38;;;43.13;;
61840;SDS011;47773;53.174;6.614;2023-02-15T16:39:16;137.20;;;45.58;;
61840;SDS011;47773;53.174;6.614;2023-02-15T16:41:43;128.95;;;48.15;;
61840;SDS011;47773;53.174;6.614;2023-02-15T16:44:16;130.60;;;46.08;;
61840;SDS011;47773;53.174;6.614;2023-02-15T16:46:46;124.22;;;48.08;;
61840;SDS011;47773;53.174;6.614;2023-02-15T16:49:17;120.63;;;47.13;;
61840;SDS011;47773;53.174;6.614;2023-02-15T16:51:56;122.22;;;48.28;;
61840;SDS011;47773;53.174;6.614;2023-02-15T16:54:26;124.75;;;48.58;;
61840;SDS011;47773;53.174;6.614;2023-02-15T16:56:53;125.53;;;47.10;;
61840;SDS011;47773;53.174;6.614;2023-02-15T16:59:23;123.35;;;47.60;;
61840;SDS011;47773;53.174;6.614;2023-02-15T17:02:21;127.43;;;47.50;;
61840;SDS011;47773;53.174;6.614;2023-02-15T17:05:06;125.95;;;46.58;;
61840;SDS011;47773;53.174;6.614;2023-02-15T17:07:39;133.50;;;47.13;;
61840;SDS011;47773;53.174;6.614;2023-02-15T17:10:25;111.72;;;45.95;;
61840;SDS011;47773;53.174;6.614;2023-02-15T17:12:53;119.63;;;44.22;;
61840;SDS011;47773;53.174;6.614;2023-02-15T17:17:54;131.25;;;46.08;;
61840;SDS011;47773;53.174;6.614;2023-02-15T17:20:22;119.68;;;46.08;;
61840;SDS011;47773;53.174;6.614;2023-02-15T17:22:48;138.35;;;54.38;;
61840;SDS011;47773;53.174;6.614;2023-02-15T17:25:23;117.82;;;46.65;;
61840;SDS011;47773;53.174;6.614;2023-02-15T17:28:21;120.90;;;45.97;;
61840;SDS011;47773;53.174;6.614;2023-02-15T17:30:51;113.22;;;46.47;;
61840;SDS011;47773;53.174;6.614;2023-02-15T17:33:20;125.90;;;47.60;;
61840;SDS011;47773;53.174;6.614;2023-02-15T17:38:31;114.55;;;45.38;;
61840;SDS011;47773;53.174;6.614;2023-02-15T17:40:57;128.25;;;48.20;;
61840;SDS011;47773;53.174;6.614;2023-02-15T17:43:26;118.35;;;47.00;;
61840;SDS011;47773;53.174;6.614;2023-02-15T17:45:52;122.45;;;48.08;;
61840;SDS011;47773;53.174;6.614;2023-02-15T17:48:36;129.55;;;50.25;;
61840;SDS011;47773;53.174;6.614;2023-02-15T17:51:05;127.05;;;49.15;;
61840;SDS011;47773;53.174;6.614;2023-02-15T17:53:36;118.32;;;46.72;;
61840;SDS011;47773;53.174;6.614;2023-02-15T17:56:01;113.13;;;43.60;;
61840;SDS011;47773;53.174;6.614;2023-02-15T17:58:34;110.82;;;44.47;;
61840;SDS011;47773;53.174;6.614;2023-02-15T18:01:01;113.47;;;43.10;;
61840;SDS011;47773;53.174;6.614;2023-02-15T18:03:53;108.35;;;41.50;;
61840;SDS011;47773;53.174;6.614;2023-02-15T18:06:39;106.22;;;40.00;;
61840;SDS011;47773;53.174;6.614;2023-02-15T18:09:25;102.95;;;41.15;;
61840;SDS011;47773;53.174;6.614;2023-02-15T18:12:19;99.63;;;40.17;;